sensor_id;sensor_type;location;lat;lon;timestamp;pressure;altitude;pressure_sealevel;temperature;humidity
49451;BME280;35336;48.400;10.886;2023-10-19T00:00:05;94883.81;;;7.83;100.00
49451;BME280;35336;48.400;10.886;2023-10-19T00:00:23;94878.13;;;7.79;100.00
49451;BME280;35336;48.400;10.886;2023-10-19T00:00:41;94878.75;;;7.81;100.00
49451;BME280;35336;48.400;10.886;2023-10-19T00:00:58;94884.25;;;7.79;100.00
49451;BME280;35336;48.400;10.886;2023-10-19T00:01:14;94879.16;;;7.78;100.00
49451;BME280;35336;48.400;10.886;2023-10-19T00:01:29;94881.59;;;7.79;100.00
49451;BME280;35336;48.400;10.886;2023-10-19T00:01:45;94879.16;;;7.78;100.00
49451;BME280;35336;48.400;10.886;2023-10-19T00:02:00;94864.09;;;7.72;100.00
49451;BME280;35336;48.400;10.886;2023-10-19T00:02:15;94871.63;;;7.75;100.00
49451;BME280;35336;48.400;10.886;2023-10-19T00:02:31;94877.91;;;7.81;100.00
49451;BME280;35336;48.400;10.886;2023-10-19T00:02:49;94873.25;;;7.76;100.00
49451;BME280;35336;48.400;10.886;2023-10-19T00:03:07;94863.28;;;7.71;100.00
49451;BME280;35336;48.400;10.886;2023-10-19T00:03:23;94869.41;;;7.72;100.00
49451;BME280;35336;48.400;10.886;2023-10-19T00:03:39;94870.19;;;7.79;100.00
49451;BME280;35336;48.400;10.886;2023-10-19T00:03:54;94858.19;;;7.70;100.00
49451;BME280;35336;48.400;10.886;2023-10-19T00:04:09;94850.47;;;7.68;100.00
49451;BME280;35336;48.400;10.886;2023-10-19T00:04:27;94845.38;;;7.67;100.00
49451;BME280;35336;48.400;10.886;2023-10-19T00:04:42;94877.69;;;7.82;100.00
49451;BME280;35336;48.400;10.886;2023-10-19T00:04:58;94869.16;;;7.80;100.00
49451;BME280;35336;48.400;10.886;2023-10-19T00:05:14;94861.63;;;7.77;100.00
49451;BME280;35336;48.400;10.886;2023-10-19T00:05:29;94875.88;;;7.83;100.00
49451;BME280;35336;48.400;10.886;2023-10-19T00:05:46;94869.72;;;7.82;100.00
49451;BME280;35336;48.400;10.886;2023-10-19T00:06:03;94866.88;;;7.84;100.00
49451;BME280;35336;48.400;10.886;2023-10-19T00:06:24;94870.94;;;7.86;100.00
49451;BME280;35336;48.400;10.886;2023-10-19T00:06:39;94866.44;;;7.87;100.00
49451;BME280;35336;48.400;10.886;2023-10-19T00:06:55;94864.00;;;7.85;100.00
49451;BME280;35336;48.400;10.886;2023-10-19T00:07:12;94859.72;;;7.84;100.00
49451;BME280;35336;48.400;10.886;2023-10-19T00:07:27;94868.28;;;7.86;100.00
49451;BME280;35336;48.400;10.886;2023-10-19T00:07:45;94863.19;;;7.85;100.00
49451;BME280;35336;48.400;10.886;2023-10-19T00:08:04;94855.44;;;7.83;100.00
49451;BME280;35336;48.400;10.886;2023-10-19T00:08:19;94860.31;;;7.86;100.00
49451;BME280;35336;48.400;10.886;2023-10-19T00:08:34;94863.59;;;7.88;100.00
49451;BME280;35336;48.400;10.886;2023-10-19T00:08:50;94863.78;;;7.87;100.00
49451;BME280;35336;48.400;10.886;2023-10-19T00:09:08;94865.63;;;7.86;100.00
49451;BME280;35336;48.400;10.886;2023-10-19T00:09:23;94862.75;;;7.88;100.00
49451;BME280;35336;48.400;10.886;2023-10-19T00:09:39;94842.44;;;7.75;100.00
49451;BME280;35336;48.400;10.886;2023-10-19T00:09:54;94849.56;;;7.81;100.00
49451;BME280;35336;48.400;10.886;2023-10-19T00:10:09;94854.88;;;7.81;100.00
49451;BME280;35336;48.400;10.886;2023-10-19T00:10:25;94859.88;;;7.89;100.00
49451;BME280;35336;48.400;10.886;2023-10-19T00:10:42;94858.28;;;7.88;100.00
49451;BME280;35336;48.400;10.886;2023-10-19T00:10:58;94861.13;;;7.87;100.00
49451;BME280;35336;48.400;10.886;2023-10-19T00:11:13;94857.06;;;7.84;100.00
49451;BME280;35336;48.400;10.886;2023-10-19T00:11:28;94862.38;;;7.84;100.00
49451;BME280;35336;48.400;10.886;2023-10-19T00:11:55;94859.50;;;7.86;100.00
49451;BME280;35336;48.400;10.886;2023-10-19T00:12:10;94860.31;;;7.86;100.00
49451;BME280;35336;48.400;10.886;2023-10-19T00:12:26;94860.75;;;7.83;100.00
49451;BME280;35336;48.400;10.886;2023-10-19T00:12:43;94846.53;;;7.77;100.00
49451;BME280;35336;48.400;10.886;2023-10-19T00:12:58;94861.13;;;7.87;100.00
49451;BME280;35336;48.400;10.886;2023-10-19T00:13:14;94855.25;;;7.85;100.00
49451;BME280;35336;48.400;10.886;2023-10-19T00:13:30;94856.84;;;7.86;100.00
49451;BME280;35336;48.400;10.886;2023-10-19T00:13:45;94864.81;;;7.86;100.00
49451;BME280;35336;48.400;10.886;2023-10-19T00:14:01;94861.50;;;7.90;100.00
49451;BME280;35336;48.400;10.886;2023-10-19T00:14:18;94848.94;;;7.79;100.00
49451;BME280;35336;48.400;10.886;2023-10-19T00:14:33;94863.59;;;7.88;100.00
49451;BME280;35336;48.400;10.886;2023-10-19T00:14:49;94859.94;;;7.83;100.00
49451;BME280;35336;48.400;10.886;2023-10-19T00:15:04;94857.22;;;7.89;100.00
49451;BME280;35336;48.400;10.886;2023-10-19T00:15:20;94853.38;;;7.85;100.00
49451;BME280;35336;48.400;10.886;2023-10-19T00:15:38;94855.81;;;7.87;100.00
49451;BME280;35336;48.400;10.886;2023-10-19T00:15:53;94860.09;;;7.88;100.00
49451;BME280;35336;48.400;10.886;2023-10-19T00:16:08;94863.38;;;7.90;100.00
49451;BME280;35336;48.400;10.886;2023-10-19T00:16:24;94860.31;;;7.86;100.00
49451;BME280;35336;48.400;10.886;2023-10-19T00:16:41;94857.44;;;7.88;100.00
49451;BME280;35336;48.400;10.886;2023-10-19T00:16:59;94860.47;;;7.91;100.00
49451;BME280;35336;48.400;10.886;2023-10-19T00:17:17;94866.81;;;7.90;100.00
49451;BME280;35336;48.400;10.886;2023-10-19T00:17:32;94840.84;;;7.74;100.00
49451;BME280;35336;48.400;10.886;2023-10-19T00:17:47;94854.19;;;7.86;100.00
49451;BME280;35336;48.400;10.886;2023-10-19T00:18:03;94859.50;;;7.86;100.00
49451;BME280;35336;48.400;10.886;2023-10-19T00:18:19;94860.09;;;7.88;100.00
49451;BME280;35336;48.400;10.886;2023-10-19T00:18:34;94862.75;;;7.88;100.00
49451;BME280;35336;48.400;10.886;2023-10-19T00:18:50;94866.00;;;7.90;100.00
49451;BME280;35336;48.400;10.886;2023-10-19T00:19:05;94861.50;;;7.90;100.00
49451;BME280;35336;48.400;10.886;2023-10-19T00:19:20;94857.66;;;7.86;100.00
49451;BME280;35336;48.400;10.886;2023-10-19T00:19:35;94861.50;;;7.90;100.00
49451;BME280;35336;48.400;10.886;2023-10-19T00:19:51;94859.88;;;7.89;100.00
49451;BME280;35336;48.400;10.886;2023-10-19T00:20:06;94839.59;;;7.76;100.00
49451;BME280;35336;48.400;10.886;2023-10-19T00:20:22;94855.03;;;7.86;100.00
49451;BME280;35336;48.400;10.886;2023-10-19T00:20:37;94858.28;;;7.88;100.00
49451;BME280;35336;48.400;10.886;2023-10-19T00:20:55;94855.41;;;7.90;100.00
49451;BME280;35336;48.400;10.886;2023-10-19T00:21:12;94854.38;;;7.91;100.00
49451;BME280;35336;48.400;10.886;2023-10-19T00:21:28;94858.06;;;7.90;100.00
49451;BME280;35336;48.400;10.886;2023-10-19T00:21:43;94843.81;;;7.84;100.00
49451;BME280;35336;48.400;10.886;2023-10-19T00:22:01;94851.72;;;7.91;100.00
49451;BME280;35336;48.400;10.886;2023-10-19T00:22:16;94852.13;;;7.88;100.00
49451;BME280;35336;48.400;10.886;2023-10-19T00:22:33;94848.47;;;7.89;100.00
49451;BME280;35336;48.400;10.886;2023-10-19T00:22:48;94849.88;;;7.91;100.00
49451;BME280;35336;48.400;10.886;2023-10-19T00:23:04;94847.22;;;7.91;100.00
49451;BME280;35336;48.400;10.886;2023-10-19T00:23:20;94849.69;;;7.93;100.00
49451;BME280;35336;48.400;10.886;2023-10-19T00:23:39;94835.03;;;7.84;100.00
49451;BME280;35336;48.400;10.886;2023-10-19T00:23:58;94844.78;;;7.90;100.00
49451;BME280;35336;48.400;10.886;2023-10-19T00:24:17;94838.44;;;7.91;100.00
49451;BME280;35336;48.400;10.886;2023-10-19T00:24:33;94819.16;;;7.77;100.00
49451;BME280;35336;48.400;10.886;2023-10-19T00:24:48;94841.91;;;7.91;100.00
49451;BME280;35336;48.400;10.886;2023-10-19T00:25:04;94841.72;;;7.93;100.00
49451;BME280;35336;48.400;10.886;2023-10-19T00:25:19;94841.50;;;7.94;100.00
49451;BME280;35336;48.400;10.886;2023-10-19T00:25:34;94831.75;;;7.88;100.00
49451;BME280;35336;48.400;10.886;2023-10-19T00:25:50;94834.97;;;7.90;100.00
49451;BME280;35336;48.400;10.886;2023-10-19T00:26:05;94846.78;;;7.94;100.00
49451;BME280;35336;48.400;10.886;2023-10-19T00:26:21;94803.69;;;7.74;100.00
49451;BME280;35336;48.400;10.886;2023-10-19T00:26:38;94836.19;;;7.94;100.00
49451;BME280;35336;48.400;10.886;2023-10-19T00:26:53;94833.75;;;7.93;100.00
49451;BME280;35336;48.400;10.886;2023-10-19T00:27:09;94835.81;;;7.91;100.00
49451;BME280;35336;48.400;10.886;2023-10-19T00:27:26;94843.13;;;7.95;100.00
49451;BME280;35336;48.400;10.886;2023-10-19T00:27:41;94842.91;;;7.97;100.00
49451;BME280;35336;48.400;10.886;2023-10-19T00:27:59;94843.53;;;7.92;100.00
49451;BME280;35336;48.400;10.886;2023-10-19T00:28:14;94827.28;;;7.82;100.00
49451;BME280;35336;48.400;10.886;2023-10-19T00:28:31;94832.16;;;7.85;100.00
49451;BME280;35336;48.400;10.886;2023-10-19T00:28:48;94814.88;;;7.76;100.00
49451;BME280;35336;48.400;10.886;2023-10-19T00:29:08;94847.81;;;7.93;100.00
49451;BME280;35336;48.400;10.886;2023-10-19T00:29:23;94842.50;;;7.93;100.00
49451;BME280;35336;48.400;10.886;2023-10-19T00:29:39;94834.59;;;7.87;100.00
49451;BME280;35336;48.400;10.886;2023-10-19T00:29:54;94844.56;;;7.91;100.00
49451;BME280;35336;48.400;10.886;2023-10-19T00:30:10;94841.91;;;7.91;100.00
49451;BME280;35336;48.400;10.886;2023-10-19T00:30:25;94843.97;;;7.89;100.00
49451;BME280;35336;48.400;10.886;2023-10-19T00:30:40;94844.56;;;7.91;100.00
49451;BME280;35336;48.400;10.886;2023-10-19T00:30:56;94849.88;;;7.91;100.00
49451;BME280;35336;48.400;10.886;2023-10-19T00:31:12;94852.53;;;7.91;100.00
49451;BME280;35336;48.400;10.886;2023-10-19T00:31:29;94839.47;;;7.90;100.00
49451;BME280;35336;48.400;10.886;2023-10-19T00:31:44;94851.72;;;7.91;100.00
49451;BME280;35336;48.400;10.886;2023-10-19T00:32:00;94844.41;;;7.86;100.00
49451;BME280;35336;48.400;10.886;2023-10-19T00:32:17;94840.91;;;7.86;100.00
49451;BME280;35336;48.400;10.886;2023-10-19T00:32:35;94845.59;;;7.90;100.00
49451;BME280;35336;48.400;10.886;2023-10-19T00:32:50;94852.53;;;7.91;100.00
49451;BME280;35336;48.400;10.886;2023-10-19T00:33:05;94852.53;;;7.91;100.00
49451;BME280;35336;48.400;10.886;2023-10-19T00:33:23;94851.50;;;7.92;100.00
49451;BME280;35336;48.400;10.886;2023-10-19T00:33:38;94835.84;;;7.84;100.00
49451;BME280;35336;48.400;10.886;2023-10-19T00:33:54;94820.41;;;7.74;100.00
49451;BME280;35336;48.400;10.886;2023-10-19T00:34:09;94854.38;;;7.91;100.00
49451;BME280;35336;48.400;10.886;2023-10-19T00:34:25;94845.59;;;7.90;100.00
49451;BME280;35336;48.400;10.886;2023-10-19T00:34:40;94838.28;;;7.86;100.00
49451;BME280;35336;48.400;10.886;2023-10-19T00:34:56;94845.59;;;7.90;100.00
49451;BME280;35336;48.400;10.886;2023-10-19T00:35:11;94845.59;;;7.90;100.00
49451;BME280;35336;48.400;10.886;2023-10-19T00:35:26;94845.59;;;7.90;100.00
49451;BME280;35336;48.400;10.886;2023-10-19T00:35:41;94840.72;;;7.87;100.00
49451;BME280;35336;48.400;10.886;2023-10-19T00:35:59;94836.22;;;7.88;100.00
49451;BME280;35336;48.400;10.886;2023-10-19T00:36:15;94841.31;;;7.89;100.00
49451;BME280;35336;48.400;10.886;2023-10-19T00:36:30;94833.19;;;7.84;100.00
49451;BME280;35336;48.400;10.886;2023-10-19T00:36:45;94837.25;;;7.87;100.00
49451;BME280;35336;48.400;10.886;2023-10-19T00:37:01;94837.25;;;7.87;100.00
49451;BME280;35336;48.400;10.886;2023-10-19T00:37:18;94841.09;;;7.91;100.00
49451;BME280;35336;48.400;10.886;2023-10-19T00:37:33;94843.53;;;7.92;100.00
49451;BME280;35336;48.400;10.886;2023-10-19T00:37:48;94841.91;;;7.91;100.00
49451;BME280;35336;48.400;10.886;2023-10-19T00:38:04;94832.31;;;7.90;100.00
49451;BME280;35336;48.400;10.886;2023-10-19T00:38:19;94825.97;;;7.91;100.00
49451;BME280;35336;48.400;10.886;2023-10-19T00:38:38;94830.69;;;7.89;100.00
49451;BME280;35336;48.400;10.886;2023-10-19T00:38:54;94832.13;;;7.92;100.00
49451;BME280;35336;48.400;10.886;2023-10-19T00:39:12;94835.34;;;7.94;100.00
49451;BME280;35336;48.400;10.886;2023-10-19T00:39:27;94834.56;;;7.93;100.00
49451;BME280;35336;48.400;10.886;2023-10-19T00:39:42;94830.28;;;7.92;100.00
49451;BME280;35336;48.400;10.886;2023-10-19T00:39:58;94826.84;;;7.85;100.00
49451;BME280;35336;48.400;10.886;2023-10-19T00:40:13;94820.94;;;7.83;100.00
49451;BME280;35336;48.400;10.886;2023-10-19T00:40:28;94820.69;;;7.91;100.00
49451;BME280;35336;48.400;10.886;2023-10-19T00:40:43;94828.63;;;7.91;100.00
49451;BME280;35336;48.400;10.886;2023-10-19T00:40:59;94832.69;;;7.94;100.00
49451;BME280;35336;48.400;10.886;2023-10-19T00:41:15;94823.78;;;7.88;100.00
49451;BME280;35336;48.400;10.886;2023-10-19T00:41:30;94795.34;;;7.70;100.00
49451;BME280;35336;48.400;10.886;2023-10-19T00:41:46;94825.97;;;7.91;100.00
49451;BME280;35336;48.400;10.886;2023-10-19T00:42:01;94822.53;;;7.91;100.00
49451;BME280;35336;48.400;10.886;2023-10-19T00:42:16;94827.63;;;7.92;100.00
49451;BME280;35336;48.400;10.886;2023-10-19T00:42:32;94827.00;;;7.90;100.00
49451;BME280;35336;48.400;10.886;2023-10-19T00:42:47;94825.38;;;7.89;100.00
49451;BME280;35336;48.400;10.886;2023-10-19T00:43:03;94826.44;;;7.88;100.00
49451;BME280;35336;48.400;10.886;2023-10-19T00:43:31;94821.94;;;7.89;100.00
49451;BME280;35336;48.400;10.886;2023-10-19T00:43:50;94802.97;;;7.85;100.00
49451;BME280;35336;48.400;10.886;2023-10-19T00:44:05;94814.56;;;7.91;100.00
49451;BME280;35336;48.400;10.886;2023-10-19T00:44:20;94811.91;;;7.91;100.00
49451;BME280;35336;48.400;10.886;2023-10-19T00:44:35;94805.47;;;7.80;100.00
49451;BME280;35336;48.400;10.886;2023-10-19T00:44:51;94813.34;;;7.87;100.00
49451;BME280;35336;48.400;10.886;2023-10-19T00:45:09;94807.63;;;7.90;100.00
49451;BME280;35336;48.400;10.886;2023-10-19T00:45:26;94810.13;;;7.85;100.00
49451;BME280;35336;48.400;10.886;2023-10-19T00:45:42;94811.97;;;7.84;100.00
49451;BME280;35336;48.400;10.886;2023-10-19T00:46:03;94806.28;;;7.81;100.00
49451;BME280;35336;48.400;10.886;2023-10-19T00:46:19;94802.44;;;7.76;100.00
49451;BME280;35336;48.400;10.886;2023-10-19T00:46:34;94816.09;;;7.80;100.00
49451;BME280;35336;48.400;10.886;2023-10-19T00:46:49;94821.56;;;7.85;100.00
49451;BME280;35336;48.400;10.886;2023-10-19T00:47:05;94822.34;;;7.86;100.00
49451;BME280;35336;48.400;10.886;2023-10-19T00:47:22;94818.28;;;7.83;100.00
49451;BME280;35336;48.400;10.886;2023-10-19T00:47:37;94819.13;;;7.84;100.00
49451;BME280;35336;48.400;10.886;2023-10-19T00:47:52;94826.44;;;7.88;100.00
49451;BME280;35336;48.400;10.886;2023-10-19T00:48:08;94820.53;;;7.86;100.00
49451;BME280;35336;48.400;10.886;2023-10-19T00:48:25;94819.91;;;7.84;100.00
49451;BME280;35336;48.400;10.886;2023-10-19T00:49:01;94830.97;;;7.81;100.00
49451;BME280;35336;48.400;10.886;2023-10-19T00:49:16;94829.34;;;7.80;100.00
49451;BME280;35336;48.400;10.886;2023-10-19T00:49:32;94826.91;;;7.78;100.00
49451;BME280;35336;48.400;10.886;2023-10-19T00:49:48;94817.97;;;7.73;100.00
49451;BME280;35336;48.400;10.886;2023-10-19T00:50:03;94836.28;;;7.81;100.00
49451;BME280;35336;48.400;10.886;2023-10-19T00:50:19;94833.81;;;7.79;100.00
49451;BME280;35336;48.400;10.886;2023-10-19T00:50:34;94831.19;;;7.79;100.00
49451;BME280;35336;48.400;10.886;2023-10-19T00:50:50;94834.28;;;7.76;100.00
49451;BME280;35336;48.400;10.886;2023-10-19T00:51:05;94828.59;;;7.73;100.00
49451;BME280;35336;48.400;10.886;2023-10-19T00:51:22;94841.22;;;7.77;100.00
49451;BME280;35336;48.400;10.886;2023-10-19T00:51:39;94819.88;;;7.66;100.00
49451;BME280;35336;48.400;10.886;2023-10-19T00:51:56;94835.53;;;7.74;100.00
49451;BME280;35336;48.400;10.886;2023-10-19T00:52:13;94813.81;;;7.58;100.00
49451;BME280;35336;48.400;10.886;2023-10-19T00:52:29;94832.28;;;7.72;100.00
49451;BME280;35336;48.400;10.886;2023-10-19T00:52:44;94825.97;;;7.66;100.00
49451;BME280;35336;48.400;10.886;2023-10-19T00:53:01;94834.09;;;7.71;100.00
49451;BME280;35336;48.400;10.886;2023-10-19T00:53:17;94828.41;;;7.68;100.00
49451;BME280;35336;48.400;10.886;2023-10-19T00:53:35;94831.44;;;7.71;100.00
49451;BME280;35336;48.400;10.886;2023-10-19T00:53:54;94820.91;;;7.65;100.00
49451;BME280;35336;48.400;10.886;2023-10-19T00:54:12;94832.66;;;7.75;100.00
49451;BME280;35336;48.400;10.886;2023-10-19T00:54:39;94834.91;;;7.72;100.00
49451;BME280;35336;48.400;10.886;2023-10-19T00:54:55;94830.03;;;7.69;100.00
49451;BME280;35336;48.400;10.886;2023-10-19T00:55:10;94835.94;;;7.71;100.00
49451;BME280;35336;48.400;10.886;2023-10-19T00:55:26;94840.66;;;7.69;100.00
49451;BME280;35336;48.400;10.886;2023-10-19T00:55:41;94828.84;;;7.65;100.00
49451;BME280;35336;48.400;10.886;2023-10-19T00:55:56;94830.25;;;7.67;100.00
49451;BME280;35336;48.400;10.886;2023-10-19T00:56:15;94829.47;;;7.67;100.00
49451;BME280;35336;48.400;10.886;2023-10-19T00:56:34;94837.56;;;7.72;100.00
49451;BME280;35336;48.400;10.886;2023-10-19T00:56:49;94838.59;;;7.71;100.00
49451;BME280;35336;48.400;10.886;2023-10-19T00:57:05;94844.69;;;7.71;100.00
49451;BME280;35336;48.400;10.886;2023-10-19T00:57:20;94841.03;;;7.72;100.00
49451;BME280;35336;48.400;10.886;2023-10-19T00:57:36;94838.00;;;7.69;100.00
49451;BME280;35336;48.400;10.886;2023-10-19T00:57:53;94843.47;;;7.74;100.00
49451;BME280;35336;48.400;10.886;2023-10-19T00:58:09;94836.97;;;7.70;100.00
49451;BME280;35336;48.400;10.886;2023-10-19T00:58:25;94846.56;;;7.71;100.00
49451;BME280;35336;48.400;10.886;2023-10-19T00:58:40;94820.72;;;7.59;100.00
49451;BME280;35336;48.400;10.886;2023-10-19T00:58:55;94831.66;;;7.70;100.00
49451;BME280;35336;48.400;10.886;2023-10-19T00:59:11;94843.91;;;7.71;100.00
49451;BME280;35336;48.400;10.886;2023-10-19T00:59:29;94836.75;;;7.71;100.00
49451;BME280;35336;48.400;10.886;2023-10-19T00:59:44;94840.44;;;7.70;100.00
49451;BME280;35336;48.400;10.886;2023-10-19T01:00:01;94839.63;;;7.70;100.00
49451;BME280;35336;48.400;10.886;2023-10-19T01:00:17;94839.19;;;7.73;100.00
49451;BME280;35336;48.400;10.886;2023-10-19T01:00:33;94839.41;;;7.71;100.00
49451;BME280;35336;48.400;10.886;2023-10-19T01:00:48;94850.38;;;7.75;100.00
49451;BME280;35336;48.400;10.886;2023-10-19T01:01:03;94843.25;;;7.75;100.00
49451;BME280;35336;48.400;10.886;2023-10-19T01:01:22;94837.56;;;7.72;100.00
49451;BME280;35336;48.400;10.886;2023-10-19T01:01:38;94839.19;;;7.73;100.00
49451;BME280;35336;48.400;10.886;2023-10-19T01:01:54;94841.41;;;7.76;100.00
49451;BME280;35336;48.400;10.886;2023-10-19T01:02:10;94838.97;;;7.74;100.00
49451;BME280;35336;48.400;10.886;2023-10-19T01:02:25;94824.34;;;7.65;100.00
49451;BME280;35336;48.400;10.886;2023-10-19T01:02:41;94842.41;;;7.82;100.00
49451;BME280;35336;48.400;10.886;2023-10-19T01:02:57;94825.72;;;7.74;100.00
49451;BME280;35336;48.400;10.886;2023-10-19T01:03:13;94832.81;;;7.81;100.00
49451;BME280;35336;48.400;10.886;2023-10-19T01:03:28;94813.91;;;7.70;100.00
49451;BME280;35336;48.400;10.886;2023-10-19T01:03:46;94833.34;;;7.89;100.00
49451;BME280;35336;48.400;10.886;2023-10-19T01:04:01;94842.94;;;7.90;100.00
49451;BME280;35336;48.400;10.886;2023-10-19T01:04:16;94831.75;;;7.88;100.00
49451;BME280;35336;48.400;10.886;2023-10-19T01:04:32;94839.69;;;7.88;100.00
49451;BME280;35336;48.400;10.886;2023-10-19T01:04:48;94809.56;;;7.76;100.00
49451;BME280;35336;48.400;10.886;2023-10-19T01:05:04;94837.25;;;7.87;100.00
49451;BME280;35336;48.400;10.886;2023-10-19T01:05:19;94824.63;;;7.82;100.00
49451;BME280;35336;48.400;10.886;2023-10-19T01:05:37;94816.88;;;7.81;100.00
49451;BME280;35336;48.400;10.886;2023-10-19T01:05:52;94819.75;;;7.79;100.00
49451;BME280;35336;48.400;10.886;2023-10-19T01:06:07;94817.72;;;7.81;100.00
49451;BME280;35336;48.400;10.886;2023-10-19T01:06:24;94817.50;;;7.83;100.00
49451;BME280;35336;48.400;10.886;2023-10-19T01:06:42;94831.13;;;7.86;100.00
49451;BME280;35336;48.400;10.886;2023-10-19T01:06:57;94829.50;;;7.85;100.00
49451;BME280;35336;48.400;10.886;2023-10-19T01:07:12;94820.00;;;7.77;100.00
49451;BME280;35336;48.400;10.886;2023-10-19T01:07:28;94826.47;;;7.82;100.00
49451;BME280;35336;48.400;10.886;2023-10-19T01:07:47;94834.00;;;7.85;100.00
49451;BME280;35336;48.400;10.886;2023-10-19T01:08:05;94804.09;;;7.71;100.00
49451;BME280;35336;48.400;10.886;2023-10-19T01:08:21;94820.78;;;7.78;100.00
49451;BME280;35336;48.400;10.886;2023-10-19T01:08:37;94818.94;;;7.78;100.00
49451;BME280;35336;48.400;10.886;2023-10-19T01:08:54;94795.16;;;7.65;100.00
49451;BME280;35336;48.400;10.886;2023-10-19T01:09:13;94803.88;;;7.72;100.00
49451;BME280;35336;48.400;10.886;2023-10-19T01:09:28;94797.41;;;7.68;100.00
49451;BME280;35336;48.400;10.886;2023-10-19T01:09:44;94820.38;;;7.81;100.00
49451;BME280;35336;48.400;10.886;2023-10-19T01:10:01;94825.22;;;7.84;100.00
49451;BME280;35336;48.400;10.886;2023-10-19T01:10:17;94817.72;;;7.81;100.00
49451;BME280;35336;48.400;10.886;2023-10-19T01:10:32;94819.53;;;7.81;100.00
49451;BME280;35336;48.400;10.886;2023-10-19T01:10:47;94817.53;;;7.76;100.00
49451;BME280;35336;48.400;10.886;2023-10-19T01:11:03;94818.75;;;7.80;100.00
49451;BME280;35336;48.400;10.886;2023-10-19T01:11:20;94820.38;;;7.81;100.00
49451;BME280;35336;48.400;10.886;2023-10-19T01:11:35;94830.53;;;7.84;100.00
49451;BME280;35336;48.400;10.886;2023-10-19T01:11:51;94816.50;;;7.77;100.00
49451;BME280;35336;48.400;10.886;2023-10-19T01:12:09;94827.09;;;7.84;100.00
49451;BME280;35336;48.400;10.886;2023-10-19T01:12:27;94833.19;;;7.84;100.00
49451;BME280;35336;48.400;10.886;2023-10-19T01:12:42;94829.72;;;7.84;100.00
49451;BME280;35336;48.400;10.886;2023-10-19T01:12:58;94827.09;;;7.84;100.00
49451;BME280;35336;48.400;10.886;2023-10-19T01:13:13;94823.59;;;7.83;100.00
49451;BME280;35336;48.400;10.886;2023-10-19T01:13:28;94819.50;;;7.87;100.00
49451;BME280;35336;48.400;10.886;2023-10-19T01:13:43;94817.03;;;7.86;100.00
49451;BME280;35336;48.400;10.886;2023-10-19T01:13:59;94822.16;;;7.87;100.00
49451;BME280;35336;48.400;10.886;2023-10-19T01:14:21;94815.88;;;7.82;100.00
49451;BME280;35336;48.400;10.886;2023-10-19T01:14:36;94818.09;;;7.85;100.00
49451;BME280;35336;48.400;10.886;2023-10-19T01:15:04;94818.91;;;7.85;100.00
49451;BME280;35336;48.400;10.886;2023-10-19T01:15:21;94816.25;;;7.85;100.00
49451;BME280;35336;48.400;10.886;2023-10-19T01:15:37;94815.63;;;7.83;100.00
49451;BME280;35336;48.400;10.886;2023-10-19T01:15:55;94819.91;;;7.84;100.00
49451;BME280;35336;48.400;10.886;2023-10-19T01:16:17;94821.31;;;7.87;100.00
49451;BME280;35336;48.400;10.886;2023-10-19T01:16:32;94815.88;;;7.82;100.00
49451;BME280;35336;48.400;10.886;2023-10-19T01:16:50;94818.09;;;7.85;100.00
49451;BME280;35336;48.400;10.886;2023-10-19T01:17:05;94823.59;;;7.83;100.00
49451;BME280;35336;48.400;10.886;2023-10-19T01:17:20;94823.19;;;7.86;100.00
49451;BME280;35336;48.400;10.886;2023-10-19T01:17:36;94821.78;;;7.84;100.00
49451;BME280;35336;48.400;10.886;2023-10-19T01:17:52;94817.50;;;7.83;100.00
49451;BME280;35336;48.400;10.886;2023-10-19T01:18:08;94809.75;;;7.81;100.00
49451;BME280;35336;48.400;10.886;2023-10-19T01:18:23;94812.97;;;7.83;100.00
49451;BME280;35336;48.400;10.886;2023-10-19T01:18:40;94817.25;;;7.84;100.00
49451;BME280;35336;48.400;10.886;2023-10-19T01:18:56;94803.88;;;7.72;100.00
49451;BME280;35336;48.400;10.886;2023-10-19T01:19:11;94808.69;;;7.82;100.00
49451;BME280;35336;48.400;10.886;2023-10-19T01:19:26;94810.19;;;7.78;100.00
49451;BME280;35336;48.400;10.886;2023-10-19T01:19:41;94804.72;;;7.73;100.00
49451;BME280;35336;48.400;10.886;2023-10-19T01:19:57;94818.50;;;7.82;100.00
49451;BME280;35336;48.400;10.886;2023-10-19T01:20:14;94805.09;;;7.76;100.00
49451;BME280;35336;48.400;10.886;2023-10-19T01:20:31;94818.75;;;7.80;100.00
49451;BME280;35336;48.400;10.886;2023-10-19T01:20:47;94815.06;;;7.81;100.00
49451;BME280;35336;48.400;10.886;2023-10-19T01:21:02;94807.16;;;7.74;100.00
49451;BME280;35336;48.400;10.886;2023-10-19T01:21:17;94812.22;;;7.76;100.00
49451;BME280;35336;48.400;10.886;2023-10-19T01:21:35;94795.53;;;7.69;100.00
49451;BME280;35336;48.400;10.886;2023-10-19T01:21:53;94800.84;;;7.69;100.00
49451;BME280;35336;48.400;10.886;2023-10-19T01:22:08;94797.63;;;7.67;100.00
49451;BME280;35336;48.400;10.886;2023-10-19T01:22:23;94813.44;;;7.80;100.00
49451;BME280;35336;48.400;10.886;2023-10-19T01:22:46;94811.56;;;7.81;100.00
49451;BME280;35336;48.400;10.886;2023-10-19T01:23:06;94794.97;;;7.67;100.00
49451;BME280;35336;48.400;10.886;2023-10-19T01:23:22;94818.28;;;7.83;100.00
49451;BME280;35336;48.400;10.886;2023-10-19T01:23:37;94807.94;;;7.75;100.00
49451;BME280;35336;48.400;10.886;2023-10-19T01:23:52;94821.56;;;7.85;100.00
49451;BME280;35336;48.400;10.886;2023-10-19T01:24:08;94816.66;;;7.82;100.00
49451;BME280;35336;48.400;10.886;2023-10-19T01:24:23;94815.06;;;7.81;100.00
49451;BME280;35336;48.400;10.886;2023-10-19T01:24:38;94810.78;;;7.80;100.00
49451;BME280;35336;48.400;10.886;2023-10-19T01:24:54;94798.00;;;7.70;100.00
49451;BME280;35336;48.400;10.886;2023-10-19T01:25:09;94810.41;;;7.76;100.00
49451;BME280;35336;48.400;10.886;2023-10-19T01:25:24;94818.75;;;7.80;100.00